Latest Coastal Weather Observations for Outer Harbor (Black Pole)

IDS60701

Issued at 11:31 pm CST Tuesday 23 July 2019 (issued every 10 minutes, with the page automatically refreshed every 10 minutes)

About coastal observations | Map of coastal stations | Coastal observations for SA | Marine services | Other Formats
Station Details ID: 023052 Name: BLACK POLE Lat: -34.73 Lon: 138.47 Height: 6.27 m
Data from the previous 72 hours. | See also: Recent months for locations in South Australia
Date/Time
CST
Wind Sea
Height
m
Swell Vis
km
Cloud Weather Temp
°C
Press
hPa
Rain since
9am
mm
Dir  Spd
kts
Gust
kts
Height
m
Period
s
Dir
23/11:30pm WNW 11 13 - - - - - - - - - -
23/11:00pm W 10 12 - - - - - - - - - -
23/10:30pm W 11 13 - - - - - - - - - -
23/10:00pm W 11 12 - - - - - - - - - -
23/09:30pm W 10 13 - - - - - - - - - -
23/09:00pm W 12 14 - - - - - - - - - -
23/08:30pm W 12 14 - - - - - - - - - -
23/08:00pm W 13 16 - - - - - - - - - -
23/07:30pm W 14 16 - - - - - - - - - -
23/07:00pm W 16 19 - - - - - - - - - -
23/06:30pm W 16 19 - - - - - - - - - -
23/06:00pm W 20 24 - - - - - - - - - -
23/05:40pm WNW 23 30 - - - - - - - - - -
23/05:30pm WNW 22 27 - - - - - - - - - -
23/05:00pm WNW 22 27 - - - - - - - - - -
23/04:30pm NW 20 24 - - - - - - - - - -
23/04:00pm NW 22 26 - - - - - - - - - -
23/03:30pm WNW 23 29 - - - - - - - - - -
23/03:00pm WNW 21 26 - - - - - - - - - -
23/02:30pm WNW 22 27 - - - - - - - - - -
23/02:00pm NW 22 26 - - - - - - - - - -
23/01:30pm NW 18 22 - - - - - - - - - -
23/01:00pm NW 17 21 - - - - - - - - - -
23/12:30pm NW 18 23 - - - - - - - - - -
23/12:00pm NW 17 20 - - - - - - - - - -
23/11:30am NW 19 23 - - - - - - - - - -
23/11:00am NW 19 24 - - - - - - - - - -
23/10:30am NW 20 24 - - - - - - - - - -
23/10:00am NW 19 23 - - - - - - - - - -
23/09:30am NW 19 23 - - - - - - - - - -
23/09:00am NNW 17 20 - - - - - - - - - -
23/08:30am NNW 16 21 - - - - - - - - - -
23/08:00am NW 18 22 - - - - - - - - - -
23/07:30am NNW 16 21 - - - - - - - - - -
23/07:00am NW 14 19 - - - - - - - - - -
23/06:30am NNW 15 18 - - - - - - - - - -
23/06:00am NNW 14 19 - - - - - - - - - -
23/05:30am NW 21 25 - - - - - - - - - -
23/05:00am NW 18 23 - - - - - - - - - -
23/04:30am NW 18 23 - - - - - - - - - -
23/04:00am NW 18 23 - - - - - - - - - -
23/03:30am NW 21 25 - - - - - - - - - -
23/03:00am NW 19 23 - - - - - - - - - -
23/02:30am NW 19 23 - - - - - - - - - -
23/02:00am NW 19 22 - - - - - - - - - -
23/01:30am NW 20 25 - - - - - - - - - -
23/01:00am NNW 19 24 - - - - - - - - - -
23/12:30am NW 17 19 - - - - - - - - - -
23/12:00am NW 17 20 - - - - - - - - - -
 
Date/Time
CST
Wind Sea
Height
m
Swell Vis
km
Cloud Weather Temp
°C
Press
hPa
Rain since
9am
mm
Dir  Spd
kts
Gust
kts
Height
m
Period
s
Dir
22/11:30pm NW 17 20 - - - - - - - - - -
22/11:00pm NW 15 18 - - - - - - - - - -
22/10:30pm NW 18 21 - - - - - - - - - -
22/10:00pm WNW 18 21 - - - - - - - - - -
22/09:30pm WNW 17 21 - - - - - - - - - -
22/09:00pm WNW 17 21 - - - - - - - - - -
22/08:30pm WNW 19 23 - - - - - - - - - -
22/08:00pm W 17 22 - - - - - - - - - -
22/07:30pm W 18 26 - - - - - - - - - -
22/07:00pm W 14 18 - - - - - - - - - -
22/06:30pm W 18 23 - - - - - - - - - -
22/06:00pm W 19 23 - - - - - - - - - -
22/05:53pm WNW 18 23 - - - - - - - - - -
22/05:30pm NW 14 16 - - - - - - - - - -
22/05:00pm NNW 16 19 - - - - - - - - - -
22/04:30pm NNW 19 23 - - - - - - - - - -
22/04:00pm NNW 23 28 - - - - - - - - - -
22/03:30pm NNW 23 29 - - - - - - - - - -
22/03:00pm NNW 24 33 - - - - - - - - - -
22/02:30pm NNW 25 29 - - - - - - - - - -
22/02:00pm NNW 25 31 - - - - - - - - - -
22/01:30pm NNW 22 28 - - - - - - - - - -
22/01:00pm NNW 22 27 - - - - - - - - - -
22/12:30pm NNW 23 26 - - - - - - - - - -
22/12:00pm NNW 23 29 - - - - - - - - - -
22/11:30am NNW 21 26 - - - - - - - - - -
22/11:00am NNW 20 26 - - - - - - - - - -
22/10:30am NNW 20 26 - - - - - - - - - -
22/10:00am N 21 24 - - - - - - - - - -
22/09:30am N 20 24 - - - - - - - - - -
22/09:00am N 19 23 - - - - - - - - - -
22/08:30am N 18 21 - - - - - - - - - -
22/08:00am N 18 22 - - - - - - - - - -
22/07:30am N 18 22 - - - - - - - - - -
22/07:00am N 18 24 - - - - - - - - - -
22/06:30am N 18 24 - - - - - - - - - -
22/06:00am N 17 21 - - - - - - - - - -
22/05:30am N 16 19 - - - - - - - - - -
22/05:00am N 15 18 - - - - - - - - - -
22/04:30am N 14 16 - - - - - - - - - -
22/04:00am N 14 17 - - - - - - - - - -
22/03:30am N 14 17 - - - - - - - - - -
22/03:00am N 14 17 - - - - - - - - - -
22/02:30am N 15 17 - - - - - - - - - -
22/02:00am N 15 17 - - - - - - - - - -
22/01:30am N 13 15 - - - - - - - - - -
22/01:00am N 13 15 - - - - - - - - - -
22/12:30am N 14 17 - - - - - - - - - -
22/12:00am N 14 17 - - - - - - - - - -
 
Date/Time
CST
Wind Sea
Height
m
Swell Vis
km
Cloud Weather Temp
°C
Press
hPa
Rain since
9am
mm
Dir  Spd
kts
Gust
kts
Height
m
Period
s
Dir
21/11:30pm N 14 17 - - - - - - - - - -
21/11:00pm N 13 16 - - - - - - - - - -
21/10:30pm N 13 16 - - - - - - - - - -
21/10:00pm N 13 15 - - - - - - - - - -
21/09:30pm N 13 15 - - - - - - - - - -
21/09:00pm N 12 14 - - - - - - - - - -
21/08:30pm N 11 13 - - - - - - - - - -
21/08:00pm N 10 12 - - - - - - - - - -
21/07:30pm N 9 9 - - - - - - - - - -
21/07:00pm N 8 9 - - - - - - - - - -
21/06:30pm NNW 6 7 - - - - - - - - - -
21/06:00pm NNW 6 7 - - - - - - - - - -
21/05:30pm NNW 6 7 - - - - - - - - - -
21/05:00pm NNW 6 7 - - - - - - - - - -
21/04:30pm NNW 6 8 - - - - - - - - - -
21/04:00pm NNW 8 10 - - - - - - - - - -
21/03:30pm NW 7 8 - - - - - - - - - -
21/03:00pm WNW 7 9 - - - - - - - - - -
21/02:30pm NW 9 11 - - - - - - - - - -
21/02:00pm WNW 9 11 - - - - - - - - - -
21/01:30pm NW 7 10 - - - - - - - - - -
21/01:00pm NW 8 9 - - - - - - - - - -
21/12:30pm NW 10 13 - - - - - - - - - -
21/12:00pm NNW 10 12 - - - - - - - - - -
21/11:30am NW 10 12 - - - - - - - - - -
21/11:00am NW 9 11 - - - - - - - - - -
21/10:30am NW 10 12 - - - - - - - - - -
21/10:00am NW 10 12 - - - - - - - - - -
21/09:30am NW 12 14 - - - - - - - - - -
21/09:00am NW 10 11 - - - - - - - - - -
21/08:30am WNW 11 13 - - - - - - - - - -
21/08:00am W 15 19 - - - - - - - - - -
21/07:30am WNW 15 17 - - - - - - - - - -
21/07:00am WNW 13 19 - - - - - - - - - -
21/06:30am WNW 10 11 - - - - - - - - - -
21/06:00am WNW 10 11 - - - - - - - - - -
21/05:30am W 11 13 - - - - - - - - - -
21/05:00am W 10 12 - - - - - - - - - -
21/04:30am W 10 13 - - - - - - - - - -
21/04:00am W 13 15 - - - - - - - - - -
21/03:30am W 14 17 - - - - - - - - - -
21/03:00am WNW 13 16 - - - - - - - - - -
21/02:30am W 14 17 - - - - - - - - - -
21/02:00am W 16 19 - - - - - - - - - -
21/01:30am WNW 17 20 - - - - - - - - - -
21/01:00am WNW 16 19 - - - - - - - - - -
21/12:30am W 22 27 - - - - - - - - - -
21/12:09am WNW 16 28 - - - - - - - - - -
21/12:00am WNW 15 19 - - - - - - - - - -

Other formats

Comma delimited format used in spreadsheet applications
http://www.bom.gov.au/fwo/IDS60701/IDS60701.95675.axf

JavaScript Object Notation format (JSON) in row-major order
http://www.bom.gov.au/fwo/IDS60701/IDS60701.95675.json

Data quality

Most of these data are generated automatically and are frequently updated. Quality checks on data are not normally performed. It is possible for incorrect values to appear. Refer to information at About Latest Weather Observations and please check the disclaimer before using these data.